Time;durP1;ratioP1;P1;durP2;ratioP2;P2;SDS_P1;SDS_P2;PMS_P1;PMS_P2;Temp;Humidity;BMP_temperature;BMP_pressure;BME280_temperature;BME280_humidity;BME280_pressure;Samples;Min_cycle;Max_cycle;Signal;HPM_P1;HPM_P2
2022/05/31 00:00:20;;;;;;;4.53;4.07;;;;;;;;;;5061044;28;20434;-79
2022/05/31 00:02:48;;;;;;;3.93;3.60;;;;;;;;;;5060310;28;20477;-81
2022/05/31 00:05:15;;;;;;;3.93;3.60;;;;;;;;;;5061349;28;20445;-80
2022/05/31 00:07:43;;;;;;;3.43;3.13;;;;;;;;;;5061872;28;20445;-79
2022/05/31 00:10:10;;;;;;;2.93;2.77;;;;;;;;;;5061809;28;20488;-81
2022/05/31 00:12:38;;;;;;;2.97;2.77;;;;;;;;;;5062332;28;20449;-80
2022/05/31 00:15:06;;;;;;;4.00;3.50;;;;;;;;;;5065080;28;20440;-79
2022/05/31 00:17:33;;;;;;;3.77;3.50;;;;;;;;;;5065138;28;20471;-80
2022/05/31 00:20:02;;;;;;;3.97;3.70;;;;;;;;;;5063020;28;20458;-81
2022/05/31 00:22:29;;;;;;;3.57;3.37;;;;;;;;;;5064678;28;20469;-82
2022/05/31 00:24:56;;;;;;;3.77;3.10;;;;;;;;;;5064134;28;20450;-80
2022/05/31 00:27:24;;;;;;;4.03;3.37;;;;;;;;;;5062646;28;20446;-81
2022/05/31 00:29:51;;;;;;;4.80;3.27;;;;;;;;;;5064108;28;20457;-81
2022/05/31 00:32:20;;;;;;;3.87;3.57;;;;;;;;;;5062336;28;20442;-79
2022/05/31 00:34:48;;;;;;;4.27;2.90;;;;;;;;;;5057986;28;20445;-80
2022/05/31 00:37:17;;;;;;;3.50;3.10;;;;;;;;;;5055847;28;20476;-80
2022/05/31 00:39:44;;;;;;;3.73;3.43;;;;;;;;;;5056882;28;21003;-80
2022/05/31 00:42:12;;;;;;;3.50;3.27;;;;;;;;;;5061687;28;20488;-80
2022/05/31 00:44:40;;;;;;;7.57;3.47;;;;;;;;;;5062109;28;20452;-81
2022/05/31 00:47:09;;;;;;;3.77;3.47;;;;;;;;;;5061477;28;20474;-81
2022/05/31 00:49:37;;;;;;;3.30;3.10;;;;;;;;;;5061843;28;20465;-81
2022/05/31 00:52:07;;;;;;;3.47;3.17;;;;;;;;;;5049694;28;20454;-80
2022/05/31 00:54:38;;;;;;;3.63;3.33;;;;;;;;;;5059586;28;20448;-81
2022/05/31 00:57:05;;;;;;;3.57;3.27;;;;;;;;;;5060074;28;20491;-80
2022/05/31 00:59:34;;;;;;;3.27;3.07;;;;;;;;;;5060601;28;20458;-80
2022/05/31 01:02:02;;;;;;;3.97;3.67;;;;;;;;;;5058942;28;20473;-80
2022/05/31 01:04:32;;;;;;;3.20;3.00;;;;;;;;;;5059845;28;20446;-81
2022/05/31 01:07:00;;;;;;;3.40;3.20;;;;;;;;;;5059882;28;20476;-80
2022/05/31 01:09:27;;;;;;;4.00;3.50;;;;;;;;;;5062931;28;20469;-80
2022/05/31 01:11:55;;;;;;;3.70;3.40;;;;;;;;;;5062548;28;20445;-79
2022/05/31 01:14:22;;;;;;;4.13;3.73;;;;;;;;;;5061947;28;20430;-81
2022/05/31 01:16:53;;;;;;;3.80;3.50;;;;;;;;;;5061911;28;20508;-80
2022/05/31 01:22:02;;;;;;;4.20;3.27;;;;;;;;;;5059101;28;20520;-79
2022/05/31 01:24:30;;;;;;;3.83;3.43;;;;;;;;;;5063573;28;20480;-80
2022/05/31 01:27:00;;;;;;;6.00;3.30;;;;;;;;;;5062630;28;20441;-80
2022/05/31 01:29:28;;;;;;;3.90;3.70;;;;;;;;;;5060583;28;20478;-80
2022/05/31 01:31:57;;;;;;;8.43;4.33;;;;;;;;;;5061077;28;20433;-80
2022/05/31 01:34:28;;;;;;;3.70;3.40;;;;;;;;;;5061587;28;20453;-79
2022/05/31 01:36:56;;;;;;;4.03;3.73;;;;;;;;;;5063097;28;20453;-80
2022/05/31 01:39:27;;;;;;;4.40;3.40;;;;;;;;;;5063399;28;20461;-79
2022/05/31 01:41:56;;;;;;;3.67;3.37;;;;;;;;;;5063952;28;20474;-80
2022/05/31 01:44:24;;;;;;;3.97;3.67;;;;;;;;;;5062401;28;20877;-81
2022/05/31 01:46:53;;;;;;;3.80;3.43;;;;;;;;;;5063040;28;20449;-80
2022/05/31 01:49:20;;;;;;;3.50;3.30;;;;;;;;;;5062723;28;20469;-80
2022/05/31 01:51:47;;;;;;;3.40;3.10;;;;;;;;;;5064682;28;20767;-80
2022/05/31 01:54:15;;;;;;;3.53;3.33;;;;;;;;;;5063936;28;20442;-80
2022/05/31 01:56:46;;;;;;;3.70;3.40;;;;;;;;;;5064002;28;20519;-82
2022/05/31 01:59:13;;;;;;;3.90;3.60;;;;;;;;;;5063953;28;20809;-80
2022/05/31 02:01:41;;;;;;;4.07;3.77;;;;;;;;;;5062230;28;20899;-79
2022/05/31 02:04:09;;;;;;;3.60;3.40;;;;;;;;;;5063579;28;20452;-80
2022/05/31 02:06:36;;;;;;;3.07;2.87;;;;;;;;;;5063210;28;20442;-78
2022/05/31 02:09:05;;;;;;;3.97;3.60;;;;;;;;;;5063109;28;20482;-79
2022/05/31 02:11:32;;;;;;;4.10;3.80;;;;;;;;;;5061312;28;20683;-78
2022/05/31 02:14:00;;;;;;;3.67;3.47;;;;;;;;;;5061371;28;20442;-79
2022/05/31 02:16:28;;;;;;;3.40;3.10;;;;;;;;;;5061809;28;20960;-80
2022/05/31 02:21:39;;;;;;;3.93;3.40;;;;;;;;;;5059962;28;20488;-80
2022/05/31 02:24:07;;;;;;;4.37;3.97;;;;;;;;;;5060747;28;20445;-80
2022/05/31 02:26:35;;;;;;;4.13;3.50;;;;;;;;;;5061162;28;20473;-80
2022/05/31 02:29:03;;;;;;;4.67;3.53;;;;;;;;;;5058993;28;20462;-79
2022/05/31 02:31:31;;;;;;;3.70;3.50;;;;;;;;;;5059063;28;20441;-80
2022/05/31 02:33:58;;;;;;;3.93;3.63;;;;;;;;;;5059043;28;20449;-80
2022/05/31 02:36:25;;;;;;;3.80;3.50;;;;;;;;;;5055894;28;20500;-81
2022/05/31 02:38:53;;;;;;;4.70;3.57;;;;;;;;;;5058866;28;20466;-80
2022/05/31 02:41:20;;;;;;;5.23;3.57;;;;;;;;;;5056541;28;20438;-80
2022/05/31 02:43:47;;;;;;;4.60;3.30;;;;;;;;;;5060751;28;20445;-80
2022/05/31 02:46:16;;;;;;;3.73;3.43;;;;;;;;;;5062563;28;20450;-80
2022/05/31 02:48:43;;;;;;;3.73;3.43;;;;;;;;;;5061944;28;21042;-79
2022/05/31 02:51:10;;;;;;;6.13;4.20;;;;;;;;;;5065322;28;20449;-80
2022/05/31 02:53:40;;;;;;;3.93;3.63;;;;;;;;;;5065808;28;20957;-79
2022/05/31 02:56:07;;;;;;;4.23;3.80;;;;;;;;;;5065961;28;20478;-80
2022/05/31 02:58:35;;;;;;;3.93;3.63;;;;;;;;;;5064872;28;20480;-78
2022/05/31 03:01:02;;;;;;;3.80;3.53;;;;;;;;;;5065480;28;20464;-80
2022/05/31 03:03:30;;;;;;;4.30;3.90;;;;;;;;;;5064120;28;20818;-79
2022/05/31 03:05:57;;;;;;;3.70;3.50;;;;;;;;;;5066608;28;20433;-80
2022/05/31 03:08:24;;;;;;;4.17;3.80;;;;;;;;;;5063398;28;20461;-80
2022/05/31 03:10:53;;;;;;;4.20;3.90;;;;;;;;;;5064977;28;20450;-80
2022/05/31 03:13:22;;;;;;;4.00;3.70;;;;;;;;;;5065059;28;20706;-80
2022/05/31 03:15:49;;;;;;;4.70;4.30;;;;;;;;;;5064689;28;20502;-80
2022/05/31 03:18:17;;;;;;;4.00;3.70;;;;;;;;;;5066442;28;20461;-80
2022/05/31 03:20:47;;;;;;;3.50;3.20;;;;;;;;;;5065599;28;20849;-81
2022/05/31 03:23:16;;;;;;;3.70;3.50;;;;;;;;;;5065774;28;21003;-79
2022/05/31 03:25:44;;;;;;;5.80;4.00;;;;;;;;;;5063751;28;20480;-81
2022/05/31 03:28:12;;;;;;;3.87;3.63;;;;;;;;;;5065656;28;20445;-80
2022/05/31 03:30:39;;;;;;;5.10;3.80;;;;;;;;;;5065878;28;20454;-80
2022/05/31 03:33:07;;;;;;;3.97;3.70;;;;;;;;;;5064487;28;20845;-79
2022/05/31 03:35:34;;;;;;;5.27;4.40;;;;;;;;;;5064138;28;20468;-80
2022/05/31 03:38:03;;;;;;;4.77;4.10;;;;;;;;;;5065736;28;20445;-81
2022/05/31 03:43:15;;;;;;;4.87;4.43;;;;;;;;;;5064929;28;20457;-80
2022/05/31 03:45:43;;;;;;;5.37;4.17;;;;;;;;;;5064806;28;20646;-81
2022/05/31 03:48:10;;;;;;;3.93;3.60;;;;;;;;;;5064133;28;20472;-80
2022/05/31 03:50:38;;;;;;;5.13;4.10;;;;;;;;;;5064092;28;20492;-81
2022/05/31 03:53:07;;;;;;;4.53;4.13;;;;;;;;;;5070021;28;20434;-79
2022/05/31 03:55:37;;;;;;;4.43;4.03;;;;;;;;;;5072250;28;20498;-79
2022/05/31 03:58:04;;;;;;;4.80;4.40;;;;;;;;;;5073124;28;20425;-79
2022/05/31 04:00:31;;;;;;;4.00;3.70;;;;;;;;;;5072188;28;20449;-79
2022/05/31 04:02:58;;;;;;;4.63;4.23;;;;;;;;;;5069596;28;20465;-81
2022/05/31 04:05:25;;;;;;;4.33;4.03;;;;;;;;;;5062132;28;20441;-80
2022/05/31 04:07:53;;;;;;;4.47;4.07;;;;;;;;;;5061286;28;20438;-80
2022/05/31 04:10:21;;;;;;;4.87;4.43;;;;;;;;;;5060809;28;20453;-79
2022/05/31 04:12:48;;;;;;;4.07;3.87;;;;;;;;;;5062011;28;20464;-79
2022/05/31 04:15:16;;;;;;;3.97;3.67;;;;;;;;;;5062106;28;20442;-78
2022/05/31 04:17:43;;;;;;;4.80;4.40;;;;;;;;;;5062012;28;20510;-80
2022/05/31 04:20:10;;;;;;;5.00;4.40;;;;;;;;;;5060161;28;20461;-79
2022/05/31 04:22:37;;;;;;;5.07;4.67;;;;;;;;;;5060720;28;20472;-79
2022/05/31 04:25:05;;;;;;;5.03;4.57;;;;;;;;;;5062354;28;20442;-79
2022/05/31 04:27:33;;;;;;;7.57;4.70;;;;;;;;;;5062329;28;20437;-81
2022/05/31 04:30:00;;;;;;;5.43;5.00;;;;;;;;;;5063219;28;20485;-79
2022/05/31 04:32:27;;;;;;;4.97;4.57;;;;;;;;;;5061906;28;20441;-79
2022/05/31 04:34:54;;;;;;;5.97;5.37;;;;;;;;;;5061689;28;20442;-79
2022/05/31 04:37:22;;;;;;;5.80;5.30;;;;;;;;;;5063318;28;20814;-80
2022/05/31 04:39:49;;;;;;;12.20;5.60;;;;;;;;;;5062631;28;20636;-80
2022/05/31 04:42:16;;;;;;;6.80;5.20;;;;;;;;;;5061031;28;20511;-80
2022/05/31 04:44:44;;;;;;;5.53;5.03;;;;;;;;;;5025611;28;1042251;-79
2022/05/31 04:47:11;;;;;;;4.97;4.57;;;;;;;;;;5063078;28;20207;-81
2022/05/31 04:49:39;;;;;;;6.03;5.43;;;;;;;;;;5061401;28;20454;-80
2022/05/31 04:52:06;;;;;;;6.47;5.90;;;;;;;;;;5061279;28;20449;-80
2022/05/31 04:54:33;;;;;;;5.53;5.13;;;;;;;;;;5062416;28;20445;-81
2022/05/31 04:57:01;;;;;;;7.07;6.47;;;;;;;;;;5060677;28;20925;-81
2022/05/31 04:59:28;;;;;;;8.70;6.63;;;;;;;;;;5063675;28;20507;-79
2022/05/31 05:01:57;;;;;;;6.70;6.00;;;;;;;;;;5063705;28;20983;-80
2022/05/31 05:04:24;;;;;;;7.43;6.00;;;;;;;;;;5061831;28;20981;-80
2022/05/31 05:06:51;;;;;;;10.13;7.70;;;;;;;;;;5062867;28;20441;-80
2022/05/31 05:09:18;;;;;;;8.43;7.17;;;;;;;;;;5062559;28;20458;-79
2022/05/31 05:11:46;;;;;;;9.47;7.20;;;;;;;;;;5060758;28;20449;-79
2022/05/31 05:14:13;;;;;;;7.80;7.10;;;;;;;;;;5061508;28;20480;-81
2022/05/31 05:16:41;;;;;;;9.40;7.37;;;;;;;;;;5062341;28;20442;-80
2022/05/31 05:19:09;;;;;;;8.53;7.30;;;;;;;;;;5061580;28;20465;-80
2022/05/31 05:21:36;;;;;;;8.27;7.13;;;;;;;;;;5059000;28;20480;-81
2022/05/31 05:24:03;;;;;;;8.17;6.80;;;;;;;;;;5058391;28;20485;-81
2022/05/31 05:26:30;;;;;;;12.07;7.20;;;;;;;;;;5057040;28;20494;-80
2022/05/31 05:31:42;;;;;;;8.10;6.60;;;;;;;;;;5062205;28;20501;-80
2022/05/31 05:34:10;;;;;;;7.70;6.83;;;;;;;;;;5062158;28;20446;-80
2022/05/31 05:36:37;;;;;;;8.07;7.23;;;;;;;;;;5062620;28;20442;-80
2022/05/31 05:39:10;;;;;;;11.57;7.40;;;;;;;;;;5062883;28;20457;-80
2022/05/31 05:41:37;;;;;;;8.20;7.00;;;;;;;;;;5060453;28;20450;-81
2022/05/31 05:44:04;;;;;;;7.47;6.77;;;;;;;;;;5060390;28;20489;-80
2022/05/31 05:46:31;;;;;;;8.07;7.07;;;;;;;;;;5063372;28;20525;-80
2022/05/31 05:48:58;;;;;;;8.27;7.40;;;;;;;;;;5062151;28;20492;-81
2022/05/31 05:51:27;;;;;;;6.97;6.23;;;;;;;;;;5061011;28;20437;-82
2022/05/31 05:53:54;;;;;;;6.90;6.20;;;;;;;;;;5064542;28;20464;-79
2022/05/31 05:56:22;;;;;;;6.33;5.80;;;;;;;;;;5063280;28;20452;-80
2022/05/31 05:58:49;;;;;;;11.07;8.30;;;;;;;;;;5064741;28;20979;-81
2022/05/31 06:01:18;;;;;;;9.27;8.00;;;;;;;;;;5061797;28;20468;-80
2022/05/31 06:03:49;;;;;;;11.20;8.47;;;;;;;;;;5061965;28;20478;-81
2022/05/31 06:06:17;;;;;;;8.43;6.60;;;;;;;;;;5063335;28;20541;-81
2022/05/31 06:08:47;;;;;;;7.73;6.93;;;;;;;;;;5062882;28;20465;-81
2022/05/31 06:11:16;;;;;;;8.07;5.83;;;;;;;;;;5062779;28;20520;-81
2022/05/31 06:13:46;;;;;;;7.13;5.90;;;;;;;;;;5062690;28;20434;-80
2022/05/31 06:16:13;;;;;;;12.03;6.00;;;;;;;;;;5062147;28;20495;-81
2022/05/31 06:18:42;;;;;;;8.43;5.93;;;;;;;;;;5063038;28;20469;-81
2022/05/31 06:21:11;;;;;;;12.60;11.07;;;;;;;;;;5062122;28;20441;-80
2022/05/31 06:23:39;;;;;;;17.07;15.40;;;;;;;;;;5062161;28;20469;-80
2022/05/31 06:26:07;;;;;;;8.17;5.83;;;;;;;;;;5063467;28;20936;-81
2022/05/31 06:28:34;;;;;;;7.93;6.70;;;;;;;;;;5061950;28;20479;-80
2022/05/31 06:31:01;;;;;;;10.33;6.73;;;;;;;;;;5061730;28;20434;-80
2022/05/31 06:33:28;;;;;;;11.00;7.70;;;;;;;;;;5061846;28;20442;-79
2022/05/31 06:35:55;;;;;;;10.23;7.97;;;;;;;;;;5060783;28;20445;-79
2022/05/31 06:38:22;;;;;;;13.10;8.60;;;;;;;;;;5062499;28;20450;-79
2022/05/31 06:40:53;;;;;;;10.77;8.47;;;;;;;;;;5061931;28;20449;-79
2022/05/31 06:43:21;;;;;;;10.57;8.70;;;;;;;;;;5058683;28;20540;-79
2022/05/31 06:45:48;;;;;;;11.47;7.73;;;;;;;;;;5058677;28;20850;-81
2022/05/31 06:48:15;;;;;;;10.77;8.27;;;;;;;;;;5057015;28;20508;-81
2022/05/31 06:50:42;;;;;;;8.17;5.93;;;;;;;;;;5059495;28;20434;-80
2022/05/31 06:58:43;;;;;;;8.43;7.63;;;;;;;;;;5050231;28;20600;-80
2022/05/31 07:01:11;;;;;;;8.40;6.53;;;;;;;;;;5058797;28;20433;-81
2022/05/31 07:03:38;;;;;;;8.20;7.40;;;;;;;;;;5057788;28;20473;-80
2022/05/31 07:06:05;;;;;;;7.10;5.67;;;;;;;;;;5057522;28;20769;-80
2022/05/31 07:08:32;;;;;;;6.63;5.77;;;;;;;;;;5056492;28;20465;-80
2022/05/31 07:10:59;;;;;;;7.70;6.90;;;;;;;;;;5058031;28;20475;-80
2022/05/31 07:13:26;;;;;;;8.13;6.77;;;;;;;;;;5058186;28;20449;-79
2022/05/31 07:15:54;;;;;;;7.17;6.30;;;;;;;;;;5058237;28;20745;-79
2022/05/31 07:18:21;;;;;;;9.03;6.63;;;;;;;;;;5059470;28;20466;-80
2022/05/31 07:20:48;;;;;;;8.20;6.70;;;;;;;;;;5060604;28;20445;-80
2022/05/31 07:23:15;;;;;;;12.67;7.17;;;;;;;;;;5057719;28;20481;-79
2022/05/31 07:25:43;;;;;;;9.43;7.57;;;;;;;;;;5058466;28;20441;-79
2022/05/31 07:28:10;;;;;;;9.10;7.00;;;;;;;;;;5060843;28;20463;-80
2022/05/31 07:30:37;;;;;;;6.80;6.20;;;;;;;;;;5062965;28;20445;-79
2022/05/31 07:33:06;;;;;;;8.23;5.80;;;;;;;;;;5063023;28;20468;-81
2022/05/31 07:35:33;;;;;;;12.73;7.10;;;;;;;;;;5056551;28;20453;-80
2022/05/31 07:38:00;;;;;;;8.00;6.40;;;;;;;;;;5047719;28;20449;-80
2022/05/31 07:40:27;;;;;;;7.57;6.30;;;;;;;;;;5060519;28;20438;-79
2022/05/31 07:42:54;;;;;;;7.83;6.80;;;;;;;;;;5061657;28;20507;-80
2022/05/31 07:45:23;;;;;;;7.63;6.83;;;;;;;;;;5062189;28;20453;-80
2022/05/31 07:47:50;;;;;;;8.57;6.33;;;;;;;;;;5061426;28;20444;-80
2022/05/31 07:50:19;;;;;;;8.73;6.10;;;;;;;;;;5062185;28;20474;-80
2022/05/31 07:52:46;;;;;;;6.13;5.50;;;;;;;;;;5061182;28;20507;-79
2022/05/31 07:55:13;;;;;;;6.93;5.83;;;;;;;;;;5063567;28;20468;-79
2022/05/31 08:00:25;;;;;;;6.07;5.40;;;;;;;;;;5062827;28;20420;-80
2022/05/31 08:02:52;;;;;;;8.20;5.27;;;;;;;;;;5060566;28;20450;-80
2022/05/31 08:05:21;;;;;;;6.60;6.07;;;;;;;;;;5059632;28;20856;-81
2022/05/31 08:07:49;;;;;;;9.10;5.30;;;;;;;;;;5062192;28;20452;-80
2022/05/31 08:10:17;;;;;;;7.33;5.70;;;;;;;;;;5062672;28;20466;-81
2022/05/31 08:12:44;;;;;;;5.37;4.97;;;;;;;;;;5057538;28;20468;-80
2022/05/31 08:15:12;;;;;;;4.33;4.00;;;;;;;;;;5054808;28;20445;-82
2022/05/31 08:17:39;;;;;;;6.07;4.23;;;;;;;;;;5060311;28;20468;-82
2022/05/31 08:20:07;;;;;;;9.73;3.73;;;;;;;;;;5061708;28;20598;-80
2022/05/31 08:22:36;;;;;;;3.43;3.13;;;;;;;;;;5062830;28;20453;-81
2022/05/31 08:25:03;;;;;;;4.03;3.17;;;;;;;;;;5061876;28;20481;-82
2022/05/31 08:27:32;;;;;;;3.40;3.10;;;;;;;;;;5061547;28;20944;-81
2022/05/31 08:29:59;;;;;;;3.43;3.10;;;;;;;;;;5061474;28;20503;-80
2022/05/31 08:32:26;;;;;;;7.37;2.80;;;;;;;;;;5059083;28;20445;-81
2022/05/31 08:34:53;;;;;;;3.20;2.33;;;;;;;;;;5057969;28;20522;-81
2022/05/31 08:37:20;;;;;;;2.50;2.30;;;;;;;;;;5061758;28;20456;-81
2022/05/31 08:39:48;;;;;;;2.57;2.37;;;;;;;;;;5060534;28;20492;-81
2022/05/31 08:42:16;;;;;;;2.27;2.10;;;;;;;;;;5060404;28;20442;-80
2022/05/31 08:44:45;;;;;;;2.90;2.60;;;;;;;;;;5058954;28;20885;-82
2022/05/31 08:47:18;;;;;;;2.77;2.57;;;;;;;;;;5057011;28;20487;-82
2022/05/31 08:52:42;;;;;;;2.83;2.40;;;;;;;;;;5059270;28;20475;-80
2022/05/31 08:58:02;;;;;;;3.90;2.27;;;;;;;;;;5058213;28;20437;-81
2022/05/31 09:00:31;;;;;;;4.30;2.20;;;;;;;;;;5059960;28;20445;-83
2022/05/31 09:03:02;;;;;;;2.90;2.53;;;;;;;;;;5060244;28;20865;-81
2022/05/31 09:05:30;;;;;;;3.33;2.30;;;;;;;;;;5059640;28;20474;-80
2022/05/31 09:08:01;;;;;;;2.60;2.40;;;;;;;;;;5059095;28;20446;-81
2022/05/31 09:10:32;;;;;;;3.23;2.00;;;;;;;;;;5059505;28;20847;-82
2022/05/31 09:13:02;;;;;;;2.33;2.23;;;;;;;;;;5058447;28;20426;-82
2022/05/31 09:15:34;;;;;;;2.50;2.30;;;;;;;;;;5059775;28;20466;-82
2022/05/31 09:18:04;;;;;;;2.10;1.90;;;;;;;;;;5048748;28;20449;-82
2022/05/31 09:20:34;;;;;;;3.10;2.37;;;;;;;;;;5054650;28;20515;-80
2022/05/31 09:23:01;;;;;;;2.13;1.93;;;;;;;;;;5057428;28;20430;-79
2022/05/31 09:25:33;;;;;;;2.20;2.10;;;;;;;;;;5054917;28;20481;-79
2022/05/31 09:28:04;;;;;;;2.30;2.10;;;;;;;;;;5053349;28;20472;-78
2022/05/31 09:30:35;;;;;;;2.53;2.10;;;;;;;;;;5053856;28;20445;-78
2022/05/31 09:33:06;;;;;;;2.93;2.20;;;;;;;;;;5054635;28;20544;-80
2022/05/31 09:35:42;;;;;;;2.17;1.97;;;;;;;;;;5057845;28;20437;-81
2022/05/31 09:38:23;;;;;;;3.90;2.00;;;;;;;;;;5039158;28;20941;-80
2022/05/31 09:40:52;;;;;;;2.03;1.93;;;;;;;;;;5037327;28;20443;-80
2022/05/31 09:43:25;;;;;;;8.63;3.10;;;;;;;;;;5037962;28;20447;-81
2022/05/31 09:45:55;;;;;;;3.67;2.30;;;;;;;;;;5041239;28;20542;-81
2022/05/31 09:48:22;;;;;;;2.70;2.40;;;;;;;;;;5040689;28;20458;-80
2022/05/31 09:50:49;;;;;;;2.00;1.90;;;;;;;;;;5040546;28;20458;-81
2022/05/31 09:59:04;;;;;;;4.90;1.93;;;;;;;;;;5040616;28;20441;-80
2022/05/31 10:01:31;;;;;;;3.40;2.27;;;;;;;;;;5041324;28;20446;-80
2022/05/31 10:04:01;;;;;;;2.10;2.00;;;;;;;;;;5040697;28;20486;-79
2022/05/31 10:06:30;;;;;;;3.53;2.23;;;;;;;;;;5038858;28;20443;-81
2022/05/31 10:08:57;;;;;;;3.30;1.90;;;;;;;;;;5057920;28;20462;-80
2022/05/31 10:11:28;;;;;;;2.47;1.70;;;;;;;;;;5059633;28;20480;-81
2022/05/31 10:13:57;;;;;;;2.30;1.97;;;;;;;;;;5060366;28;20745;-81
2022/05/31 10:16:25;;;;;;;3.73;1.90;;;;;;;;;;5060727;28;20450;-81
2022/05/31 10:18:53;;;;;;;2.73;2.13;;;;;;;;;;5059034;28;20835;-81
2022/05/31 10:21:31;;;;;;;2.37;2.00;;;;;;;;;;5059891;28;20434;-81
2022/05/31 10:24:01;;;;;;;2.40;1.83;;;;;;;;;;5060753;28;20473;-81
2022/05/31 10:26:31;;;;;;;2.67;2.13;;;;;;;;;;5061607;28;20437;-81
2022/05/31 10:29:00;;;;;;;1.77;1.67;;;;;;;;;;5061287;28;20466;-85
2022/05/31 10:31:32;;;;;;;2.37;2.17;;;;;;;;;;5060704;28;20959;-80
2022/05/31 10:34:01;;;;;;;3.53;1.80;;;;;;;;;;5062030;28;20441;-81
2022/05/31 10:36:29;;;;;;;1.80;1.70;;;;;;;;;;5061679;28;20441;-80
2022/05/31 10:39:07;;;;;;;3.47;2.97;;;;;;;;;;5061969;28;20469;-80
2022/05/31 10:41:36;;;;;;;4.17;2.60;;;;;;;;;;5062337;28;20446;-81
2022/05/31 10:44:07;;;;;;;4.43;3.27;;;;;;;;;;5061929;28;20972;-81
2022/05/31 10:46:35;;;;;;;2.83;2.63;;;;;;;;;;5061122;28;20445;-81
2022/05/31 10:49:03;;;;;;;4.63;2.93;;;;;;;;;;5062277;28;20461;-81
2022/05/31 10:51:38;;;;;;;3.20;3.00;;;;;;;;;;5061526;28;20453;-81
2022/05/31 10:54:10;;;;;;;4.47;2.90;;;;;;;;;;5059097;28;20473;-80
2022/05/31 10:56:42;;;;;;;2.90;2.70;;;;;;;;;;5059307;28;20456;-81
2022/05/31 10:59:16;;;;;;;4.50;3.20;;;;;;;;;;5058108;28;20458;-81
2022/05/31 11:01:55;;;;;;;4.20;3.40;;;;;;;;;;5062530;28;20441;-80
2022/05/31 11:04:29;;;;;;;4.50;3.47;;;;;;;;;;5065497;28;20473;-80
2022/05/31 11:06:59;;;;;;;4.17;3.60;;;;;;;;;;5066750;28;20472;-80
2022/05/31 11:12:30;;;;;;;3.00;2.80;;;;;;;;;;5057857;28;20480;-80
2022/05/31 11:15:05;;;;;;;5.10;3.13;;;;;;;;;;5066258;28;20441;-81
2022/05/31 11:17:41;;;;;;;3.53;2.43;;;;;;;;;;5069427;28;20449;-82
2022/05/31 11:20:10;;;;;;;3.27;2.57;;;;;;;;;;5078010;28;20465;-81
2022/05/31 11:22:46;;;;;;;3.70;2.60;;;;;;;;;;5078100;28;20445;-81
2022/05/31 11:25:31;;;;;;;4.13;2.53;;;;;;;;;;5078942;28;20464;-82
2022/05/31 11:28:05;;;;;;;2.37;1.93;;;;;;;;;;5065671;28;20441;-80
2022/05/31 11:30:36;;;;;;;2.73;2.50;;;;;;;;;;5075964;28;20468;-81
2022/05/31 11:33:20;;;;;;;2.93;2.30;;;;;;;;;;5063436;28;20445;-81
2022/05/31 11:35:53;;;;;;;3.90;2.50;;;;;;;;;;5068492;28;20449;-81
2022/05/31 11:38:23;;;;;;;3.37;2.20;;;;;;;;;;5067796;28;20466;-81
2022/05/31 11:40:59;;;;;;;2.13;1.90;;;;;;;;;;5071026;28;20460;-80
2022/05/31 11:43:42;;;;;;;2.10;1.90;;;;;;;;;;5070526;28;20448;-81
2022/05/31 11:46:14;;;;;;;2.77;2.57;;;;;;;;;;5065171;28;20493;-79
2022/05/31 11:48:46;;;;;;;2.63;2.33;;;;;;;;;;5065048;28;20551;-81
2022/05/31 11:51:17;;;;;;;5.13;2.07;;;;;;;;;;5047253;28;20419;-81
2022/05/31 11:53:52;;;;;;;2.10;1.90;;;;;;;;;;5044509;28;20573;-81
2022/05/31 11:56:25;;;;;;;2.80;2.40;;;;;;;;;;5042412;28;20487;-81
2022/05/31 11:58:54;;;;;;;2.07;1.87;;;;;;;;;;5063934;28;20504;-81
2022/05/31 12:01:24;;;;;;;4.27;1.80;;;;;;;;;;5066938;28;20476;-81
2022/05/31 12:03:58;;;;;;;1.73;1.60;;;;;;;;;;5070888;28;20430;-81
2022/05/31 12:06:31;;;;;;;2.33;1.90;;;;;;;;;;5071833;28;20980;-82
2022/05/31 12:09:01;;;;;;;3.27;1.77;;;;;;;;;;5069498;28;20465;-81
2022/05/31 12:11:31;;;;;;;2.20;2.00;;;;;;;;;;5066059;28;20446;-81
2022/05/31 12:13:59;;;;;;;2.23;2.03;;;;;;;;;;5066040;28;21069;-80
2022/05/31 12:16:28;;;;;;;2.10;1.67;;;;;;;;;;5066028;28;20488;-80
2022/05/31 12:19:02;;;;;;;3.60;1.80;;;;;;;;;;5062335;28;20457;-80
2022/05/31 12:21:35;;;;;;;1.87;1.77;;;;;;;;;;5065071;28;20480;-81
2022/05/31 12:24:03;;;;;;;2.70;2.40;;;;;;;;;;5065918;28;20438;-81
2022/05/31 12:26:34;;;;;;;2.90;1.73;;;;;;;;;;5065890;28;20473;-80
2022/05/31 12:29:08;;;;;;;2.97;1.90;;;;;;;;;;5066222;28;20449;-81
2022/05/31 12:31:37;;;;;;;3.40;1.80;;;;;;;;;;5065221;28;20527;-81
2022/05/31 12:34:15;;;;;;;3.07;2.20;;;;;;;;;;5064918;28;20474;-81
2022/05/31 12:36:57;;;;;;;2.50;2.10;;;;;;;;;;5065430;28;20433;-82
2022/05/31 12:39:28;;;;;;;3.03;2.80;;;;;;;;;;5066150;28;20463;-81
2022/05/31 12:41:55;;;;;;;2.00;1.90;;;;;;;;;;5066513;28;20449;-81
2022/05/31 12:44:28;;;;;;;2.67;1.90;;;;;;;;;;5065307;28;20464;-82
2022/05/31 12:47:10;;;;;;;3.30;1.80;;;;;;;;;;5065742;28;20472;-81
2022/05/31 12:49:38;;;;;;;2.70;1.60;;;;;;;;;;5065468;28;20905;-81
2022/05/31 12:52:22;;;;;;;3.03;2.40;;;;;;;;;;5065359;28;20471;-81
2022/05/31 12:54:51;;;;;;;1.53;1.53;;;;;;;;;;5065282;28;20468;-81
2022/05/31 12:57:22;;;;;;;4.03;2.07;;;;;;;;;;5064718;28;20445;-80
2022/05/31 12:59:51;;;;;;;3.70;2.07;;;;;;;;;;5064206;28;20465;-81
2022/05/31 13:02:38;;;;;;;2.13;1.90;;;;;;;;;;5063479;28;20584;-81
2022/05/31 13:05:20;;;;;;;2.30;2.10;;;;;;;;;;5064336;28;20481;-80
2022/05/31 13:07:49;;;;;;;2.63;2.27;;;;;;;;;;5046950;28;20461;-80
2022/05/31 13:10:30;;;;;;;3.00;2.30;;;;;;;;;;5063226;28;20532;-81
2022/05/31 13:21:15;;;;;;;4.57;2.30;;;;;;;;;;5065204;28;20486;-81
2022/05/31 13:23:44;;;;;;;2.30;1.90;;;;;;;;;;5065129;28;20464;-82
2022/05/31 13:26:12;;;;;;;2.10;1.87;;;;;;;;;;5063963;28;20496;-82
2022/05/31 13:28:41;;;;;;;2.30;1.67;;;;;;;;;;5064307;28;20500;-82
2022/05/31 13:31:13;;;;;;;1.63;1.53;;;;;;;;;;5064058;28;20433;-81
2022/05/31 13:33:40;;;;;;;1.67;1.57;;;;;;;;;;5064162;28;20518;-82
2022/05/31 13:36:12;;;;;;;2.67;2.10;;;;;;;;;;5064070;28;20464;-80
2022/05/31 13:38:42;;;;;;;3.30;2.13;;;;;;;;;;5064432;28;20462;-82
2022/05/31 13:41:13;;;;;;;1.90;1.80;;;;;;;;;;5064062;28;20478;-81
2022/05/31 13:43:41;;;;;;;2.00;1.90;;;;;;;;;;5064297;28;20520;-80
2022/05/31 13:46:13;;;;;;;2.10;1.93;;;;;;;;;;5063771;28;20556;-80
2022/05/31 13:48:41;;;;;;;3.33;2.40;;;;;;;;;;5062676;28;20492;-81
2022/05/31 13:51:10;;;;;;;1.80;1.70;;;;;;;;;;5063369;28;20453;-80
2022/05/31 13:53:38;;;;;;;1.87;1.77;;;;;;;;;;5063718;28;20453;-82
2022/05/31 13:56:06;;;;;;;2.50;1.50;;;;;;;;;;5064511;28;20437;-81
2022/05/31 13:58:37;;;;;;;2.23;1.97;;;;;;;;;;5064221;28;20450;-83
2022/05/31 14:01:04;;;;;;;1.90;1.63;;;;;;;;;;5064250;28;20509;-82
2022/05/31 14:03:34;;;;;;;2.00;1.83;;;;;;;;;;5064583;28;20453;-83
2022/05/31 14:06:02;;;;;;;3.20;1.90;;;;;;;;;;5064200;28;20477;-83
2022/05/31 14:08:38;;;;;;;4.40;2.00;;;;;;;;;;5066366;28;20473;-81
2022/05/31 14:11:09;;;;;;;3.27;1.80;;;;;;;;;;5072291;28;20497;-82
2022/05/31 14:13:39;;;;;;;2.53;1.70;;;;;;;;;;5071169;28;20442;-82
2022/05/31 14:16:11;;;;;;;2.33;2.13;;;;;;;;;;5070450;28;20980;-82
2022/05/31 14:18:41;;;;;;;2.20;1.87;;;;;;;;;;5070665;28;20465;-80
2022/05/31 14:21:08;;;;;;;2.10;1.90;;;;;;;;;;5067739;28;20449;-81
2022/05/31 14:23:36;;;;;;;2.00;1.90;;;;;;;;;;5061947;28;20437;-84
2022/05/31 14:26:04;;;;;;;1.90;1.80;;;;;;;;;;5061977;28;20496;-82
2022/05/31 14:28:32;;;;;;;6.07;2.20;;;;;;;;;;5060827;28;20461;-83
2022/05/31 14:31:01;;;;;;;2.67;1.80;;;;;;;;;;5061048;28;20453;-83
2022/05/31 14:33:29;;;;;;;3.17;2.00;;;;;;;;;;5060297;28;20442;-82
2022/05/31 14:35:57;;;;;;;1.80;1.70;;;;;;;;;;5058978;28;20815;-82
2022/05/31 14:38:25;;;;;;;2.13;1.90;;;;;;;;;;5064604;28;20462;-84
2022/05/31 14:40:53;;;;;;;5.50;2.10;;;;;;;;;;5065492;28;20465;-82
2022/05/31 14:43:29;;;;;;;2.70;1.73;;;;;;;;;;5064804;28;20515;-82
2022/05/31 14:45:56;;;;;;;1.93;1.80;;;;;;;;;;5065482;28;20473;-82
2022/05/31 14:48:32;;;;;;;4.20;2.00;;;;;;;;;;5067391;28;20492;-82
2022/05/31 14:51:00;;;;;;;2.00;1.90;;;;;;;;;;5068019;28;20446;-82
2022/05/31 14:53:34;;;;;;;2.20;1.50;;;;;;;;;;5067232;28;20631;-82
2022/05/31 14:56:01;;;;;;;2.93;1.57;;;;;;;;;;5067173;28;20434;-83
2022/05/31 14:58:44;;;;;;;2.03;1.90;;;;;;;;;;5067657;28;20466;-83
2022/05/31 15:01:14;;;;;;;2.10;1.90;;;;;;;;;;5067513;28;20468;-81
2022/05/31 15:03:44;;;;;;;2.77;1.30;;;;;;;;;;5068215;28;20449;-81
2022/05/31 15:06:12;;;;;;;5.23;1.80;;;;;;;;;;5067772;28;20462;-80
2022/05/31 15:08:40;;;;;;;1.80;1.70;;;;;;;;;;5066525;28;20523;-80
2022/05/31 15:19:34;;;;;;;1.97;1.87;;;;;;;;;;5067111;28;20456;-83
2022/05/31 15:22:03;;;;;;;8.13;2.17;;;;;;;;;;5065859;28;20442;-82
2022/05/31 15:24:32;;;;;;;2.87;2.03;;;;;;;;;;5065137;28;20466;-81
2022/05/31 15:26:59;;;;;;;3.77;2.13;;;;;;;;;;5066070;28;20489;-82
2022/05/31 15:29:26;;;;;;;1.83;1.70;;;;;;;;;;5067259;28;20465;-81
2022/05/31 15:31:53;;;;;;;3.60;1.73;;;;;;;;;;5067800;28;20472;-81
2022/05/31 15:34:20;;;;;;;1.90;1.70;;;;;;;;;;5067803;28;20440;-81
2022/05/31 15:36:49;;;;;;;4.00;2.00;;;;;;;;;;5067128;28;20438;-81
2022/05/31 15:39:17;;;;;;;3.00;2.30;;;;;;;;;;5067759;28;20472;-80
2022/05/31 15:41:45;;;;;;;5.47;2.07;;;;;;;;;;5068061;28;20465;-82
2022/05/31 15:44:12;;;;;;;2.63;2.03;;;;;;;;;;5066469;28;20508;-81